EGPN/DND METAR and TAF weather

Enter ICAO airport designator
Station Type Date Time Source
EGPN METAR 2018/12/10 19:20 UTC NOAA

EGPN 101920Z 00000KT CAVOK 03/01 Q1026


Station Type Date Time Source
EGPN Decoded METAR 2018/12/10 19:20 UTC NOAA

Dundee / Riverside, United Kingdom (EGPN) 56-27N 003-01W
Dec 10, 2018 - 02:20 PM EST / 2018.12.10 1920 UTC
Wind: Calm:0
Visibility: greater than 7 mile(s):0
Temperature: 37 F (3 C)
Dew Point: 33 F (1 C)
Relative Humidity: 86%
Pressure (altimeter): 30.30 in. Hg (1026 hPa)
ob: EGPN 101920Z 00000KT CAVOK 03/01 Q1026
cycle: 19

Station Type Date Time Source
EGPN TAF UTC NOAA

Error!


Example: see airport list